Blackstone, VA

12:41 AM EST on November 24, 2014 (GMT -0500)
Modest Creek Rd | Change Station
CLOSE
Current Station
Personal Weather Station
Location: Victoria, VA
Elevation: 485 ft
Nearby Weather Stations

Elev 485 ft 37.05 °N, 78.18 °W | Updated 1 second ago

Overcast
Overcast
63.0 °F
Feels Like 63.0 °F
N
10.1
Wind Variable Wind from ESE
Gusts 12.0 mph

Today
High -- | Low -- °F
--% Chance of Precip.
Yesterday
High -- | Low -- °F
Precip. -- in
6:59 AM 4:57 PM
Waxing Crescent, 4% visible
Pressure 29.79 in
Visibility 10.0 miles
Clouds Overcast 500 ft
Dew Point Not available.
Humidity Not available.
Rainfall 0.00 in
Snow Depth Not available.
UV 0 out of 12
Pollen .10 out of 12
Air Quality Not available.
Flu Activity Not available.
METAR KAVC 240536Z AUTO 16011G15KT 10SM OVC005 17/16 A2979 RMK AO2 P0003 T01700163

More Conditions Fewer Conditions

Pressure 29.79 in
Visibility 10.0 miles
Clouds Overcast 500 ft
Dew Point Not available.
Humidity Not available.
Rainfall 0.00 in
Snow Depth Not available.
UV 0 out of 12
Pollen .10 out of 12
Air Quality Not available.
Flu Activity Not available.
METAR KAVC 240536Z AUTO 16011G15KT 10SM OVC005 17/16 A2979 RMK AO2 P0003 T01700163

More Conditions Fewer Conditions

10-Day Weather Forecast

Almanac

Astronomy

Nov. 24, 2014 Rise Set
Actual Time
Civil Twilight
Nautical Twilight
Astronomical Twilight
Moon
Length of Visible Light
Length of Day
Tomorrow will be .
, % of the Moon is Illuminated

Today's Extremes

State Highs State Lows

Community

WunderPhotos

Upload Photos

1,773,279 photos uploaded!

WunderBlogs® & News

Nearby

Air Quality

  Air Quality AQ Index Pollutant
Not available.

Snow Depth

Station Depth Elevation

Earthquake Activity

City Distance Mag. Time & Date
Minimum magnitude displayed is 2.5.

Coastal Water Temperatures

Place Temperature

Nearby Weather Stations